createdAt,value
2023-02-23T00:01:55.030Z,82.03
2023-02-23T00:04:23.623Z,81.68
2023-02-23T00:06:54.070Z,79.35
2023-02-23T00:09:35.102Z,80.95
2023-02-23T00:12:07.730Z,80.68
2023-02-23T00:14:37.666Z,83.10
2023-02-23T00:17:10.688Z,79.97
2023-02-23T00:19:37.827Z,81.43
2023-02-23T00:22:04.858Z,78.82
2023-02-23T00:24:31.590Z,80.40
2023-02-23T00:26:58.637Z,82.43
2023-02-23T00:29:25.407Z,78.57
2023-02-23T00:31:52.591Z,80.38
2023-02-23T00:34:23.997Z,83.15
2023-02-23T00:36:55.548Z,79.43
2023-02-23T00:39:25.202Z,85.38
2023-02-23T00:41:53.314Z,82.57
2023-02-23T00:44:21.868Z,86.22
2023-02-23T00:46:51.458Z,86.22
2023-02-23T00:49:20.282Z,83.07
2023-02-23T00:51:47.317Z,85.95
2023-02-23T00:54:18.299Z,87.90
2023-02-23T00:56:46.112Z,90.07
2023-02-23T00:59:14.534Z,85.60
2023-02-23T01:01:42.478Z,82.30
2023-02-23T01:04:13.063Z,86.32
2023-02-23T01:06:41.081Z,83.72
2023-02-23T01:09:11.138Z,82.97
2023-02-23T01:11:37.949Z,82.82
2023-02-23T01:14:05.205Z,81.05
2023-02-23T01:16:34.133Z,80.60
2023-02-23T01:19:05.017Z,81.63
2023-02-23T01:21:37.891Z,85.32
2023-02-23T01:24:06.678Z,85.75
2023-02-23T01:26:36.233Z,83.68
2023-02-23T01:29:08.720Z,84.60
2023-02-23T01:31:36.912Z,81.00
2023-02-23T01:34:05.905Z,79.47
2023-02-23T01:36:38.942Z,80.18
2023-02-23T01:39:07.956Z,82.40
2023-02-23T01:41:36.715Z,80.55
2023-02-23T01:44:08.045Z,83.15
2023-02-23T01:46:40.796Z,58.50
2023-02-23T01:49:15.471Z,78.85
2023-02-23T01:51:52.555Z,78.20
2023-02-23T01:54:24.559Z,77.63
2023-02-23T01:56:58.459Z,80.53
2023-02-23T01:59:38.090Z,79.60
2023-02-23T02:02:07.973Z,78.60
2023-02-23T02:04:44.200Z,77.40
2023-02-23T02:07:18.047Z,78.68
2023-02-23T02:10:06.184Z,78.78
2023-02-23T02:12:33.898Z,77.30
2023-02-23T02:15:02.303Z,79.50
2023-02-23T02:17:46.129Z,78.40
2023-02-23T02:20:34.314Z,76.57
2023-02-23T02:23:30.928Z,76.85
2023-02-23T02:26:03.688Z,73.22
2023-02-23T02:28:48.980Z,74.25
2023-02-23T02:31:30.227Z,76.40
2023-02-23T02:34:09.233Z,73.90
2023-02-23T02:36:50.987Z,76.15
2023-02-23T02:39:36.542Z,76.43
2023-02-23T02:42:31.731Z,74.78
2023-02-23T02:45:07.756Z,70.57
2023-02-23T02:47:38.821Z,72.38
2023-02-23T02:50:21.215Z,72.35
2023-02-23T02:55:29.017Z,70.28
2023-02-23T02:58:02.277Z,71.18
2023-02-23T03:00:59.315Z,68.78
2023-02-23T03:03:55.077Z,73.18
2023-02-23T03:06:52.035Z,72.25
2023-02-23T03:10:07.906Z,70.95
2023-02-23T03:13:00.530Z,70.20
2023-02-23T03:18:54.043Z,67.60
2023-02-23T03:21:50.295Z,67.68
2023-02-23T03:24:47.723Z,66.45
2023-02-23T03:27:45.068Z,67.55
2023-02-23T03:30:53.302Z,66.78
2023-02-23T03:33:57.244Z,66.22
2023-02-23T03:36:46.137Z,64.38
2023-02-23T03:39:40.487Z,65.88
2023-02-23T03:42:31.450Z,65.70
2023-02-23T03:45:20.282Z,67.10
2023-02-23T03:48:06.538Z,64.38
2023-02-23T03:51:05.627Z,65.63
2023-02-23T03:54:09.016Z,65.90
2023-02-23T03:56:58.949Z,63.20
2023-02-23T03:59:49.326Z,65.15
2023-02-23T04:02:37.834Z,64.57
2023-02-23T04:05:29.729Z,65.30
2023-02-23T04:08:17.353Z,66.47
2023-02-23T04:11:15.037Z,66.40
2023-02-23T04:13:44.722Z,65.97
2023-02-23T04:16:12.133Z,67.40
2023-02-23T04:18:39.972Z,68.25
2023-02-23T04:21:07.780Z,67.03
2023-02-23T04:23:36.771Z,67.93
2023-02-23T04:26:05.128Z,69.80
2023-02-23T04:28:31.910Z,69.68
2023-02-23T04:30:58.696Z,67.45
2023-02-23T04:33:25.554Z,67.93
2023-02-23T04:35:54.264Z,66.75
2023-02-23T04:38:22.276Z,64.90
2023-02-23T04:40:49.230Z,70.03
2023-02-23T04:43:16.173Z,66.50
2023-02-23T04:45:43.896Z,65.40
2023-02-23T04:48:10.717Z,66.85
2023-02-23T04:50:37.626Z,67.70
2023-02-23T04:53:04.441Z,67.75
2023-02-23T04:55:32.773Z,69.88
2023-02-23T04:58:01.253Z,68.70
2023-02-23T05:00:29.549Z,69.10
2023-02-23T05:02:57.972Z,69.13
2023-02-23T05:05:25.085Z,69.90
2023-02-23T05:07:52.006Z,69.15
2023-02-23T05:10:18.836Z,67.30
2023-02-23T05:12:46.901Z,70.35
2023-02-23T05:15:13.801Z,71.57
2023-02-23T05:17:42.051Z,71.15
2023-02-23T05:20:10.863Z,68.70
2023-02-23T05:22:37.759Z,70.70
2023-02-23T05:25:05.636Z,72.72
2023-02-23T05:27:32.776Z,67.22
2023-02-23T05:29:59.574Z,67.88
2023-02-23T05:32:26.424Z,70.32
2023-02-23T05:34:53.496Z,72.53
2023-02-23T05:37:20.338Z,69.15
2023-02-23T05:39:48.046Z,66.80
2023-02-23T05:42:14.929Z,67.50
2023-02-23T05:44:41.715Z,67.80
2023-02-23T05:47:08.679Z,67.80
2023-02-23T05:49:35.516Z,66.65
2023-02-23T05:52:02.313Z,65.05
2023-02-23T05:54:29.243Z,65.68
2023-02-23T05:56:56.000Z,68.45
2023-02-23T05:59:22.847Z,68.60
2023-02-23T06:01:49.631Z,71.07
2023-02-23T06:04:17.329Z,68.00
2023-02-23T06:06:44.276Z,68.88
2023-02-23T06:09:11.139Z,66.78
2023-02-23T06:11:37.895Z,66.85
2023-02-23T06:14:04.696Z,66.72
2023-02-23T06:16:31.993Z,68.88
2023-02-23T06:18:59.080Z,70.35
2023-02-23T06:21:26.238Z,71.30
2023-02-23T06:23:53.434Z,71.13
2023-02-23T06:26:20.609Z,68.35
2023-02-23T06:28:47.576Z,68.00
2023-02-23T06:31:14.403Z,69.35
2023-02-23T06:33:41.187Z,66.55
2023-02-23T06:36:08.323Z,67.32
2023-02-23T06:38:35.093Z,67.05
2023-02-23T06:41:07.896Z,67.18
2023-02-23T06:43:34.672Z,66.85
2023-02-23T06:46:01.457Z,68.10
2023-02-23T06:48:28.274Z,65.57
2023-02-23T06:50:55.011Z,66.45
2023-02-23T06:53:23.170Z,71.65
2023-02-23T06:55:50.057Z,65.50
2023-02-23T06:58:17.700Z,68.75
2023-02-23T07:00:44.472Z,68.45
2023-02-23T07:03:11.292Z,73.25
2023-02-23T07:05:38.392Z,74.55
2023-02-23T07:08:05.497Z,74.97
2023-02-23T07:10:33.054Z,73.32
2023-02-23T07:13:00.632Z,73.68
2023-02-23T07:15:27.590Z,73.72
2023-02-23T07:17:54.672Z,74.55
2023-02-23T07:20:21.453Z,76.25
2023-02-23T07:22:48.255Z,75.22
2023-02-23T07:25:15.133Z,74.65
2023-02-23T07:27:42.301Z,73.15
2023-02-23T07:30:10.693Z,77.65
2023-02-23T07:32:37.535Z,93.53
2023-02-23T07:35:05.548Z,75.82
2023-02-23T07:37:32.602Z,75.90
2023-02-23T07:40:01.167Z,75.50
2023-02-23T07:42:28.672Z,74.03
2023-02-23T07:44:56.216Z,77.35
2023-02-23T07:47:30.273Z,76.78
2023-02-23T07:50:03.455Z,77.93
2023-02-23T07:52:30.230Z,80.40
2023-02-23T07:54:57.741Z,77.82
2023-02-23T07:57:25.145Z,76.75
2023-02-23T07:59:51.947Z,82.10
2023-02-23T08:02:18.747Z,77.03
2023-02-23T08:04:45.545Z,76.60
2023-02-23T08:07:12.311Z,78.00
2023-02-23T08:09:39.097Z,77.00
2023-02-23T08:12:06.468Z,78.55
2023-02-23T08:14:33.317Z,75.57
2023-02-23T08:17:01.600Z,77.45
2023-02-23T08:19:28.874Z,78.07
2023-02-23T08:21:56.868Z,78.45
2023-02-23T08:24:23.771Z,78.40
2023-02-23T08:26:50.516Z,78.90
2023-02-23T08:29:17.313Z,78.63
2023-02-23T08:31:44.794Z,78.25
2023-02-23T08:34:11.880Z,75.93
2023-02-23T08:36:39.583Z,75.35
2023-02-23T08:39:07.758Z,76.97
2023-02-23T08:41:35.130Z,75.13
2023-02-23T08:44:01.868Z,77.30
2023-02-23T08:46:28.654Z,75.18
2023-02-23T08:48:56.678Z,77.63
2023-02-23T08:51:24.116Z,74.70
2023-02-23T08:53:51.026Z,75.32
2023-02-23T08:56:17.840Z,74.40
2023-02-23T08:58:44.689Z,75.88
2023-02-23T09:01:20.178Z,76.95
2023-02-23T09:03:47.450Z,79.10
2023-02-23T09:06:19.978Z,74.53
2023-02-23T09:08:47.010Z,78.35
2023-02-23T09:11:13.817Z,78.47
2023-02-23T09:13:40.643Z,79.45
2023-02-23T09:16:10.420Z,80.43
2023-02-23T09:18:38.298Z,78.50
2023-02-23T09:21:07.480Z,79.38
2023-02-23T09:23:37.883Z,78.47
2023-02-23T09:26:08.929Z,78.25
2023-02-23T09:28:36.449Z,75.85
2023-02-23T09:31:08.669Z,76.68
2023-02-23T09:33:36.034Z,77.68
2023-02-23T09:36:12.820Z,75.22
2023-02-23T09:38:40.294Z,74.25
2023-02-23T09:41:37.470Z,78.47
2023-02-23T09:44:22.103Z,75.20
2023-02-23T09:47:11.567Z,76.78
2023-02-23T09:49:42.366Z,74.68
2023-02-23T09:52:19.043Z,76.32
2023-02-23T09:54:47.109Z,76.20
2023-02-23T09:57:38.070Z,77.80
2023-02-23T10:00:27.948Z,77.63
2023-02-23T10:03:04.371Z,74.82
2023-02-23T10:05:38.301Z,74.80
2023-02-23T10:08:29.448Z,74.18
2023-02-23T10:11:11.080Z,75.85
2023-02-23T10:14:02.050Z,74.50
2023-02-23T10:16:49.760Z,76.03
2023-02-23T10:19:42.909Z,74.13
2023-02-23T10:22:12.309Z,74.28
2023-02-23T10:25:00.384Z,78.32
2023-02-23T10:27:37.630Z,74.45
2023-02-23T10:30:21.692Z,77.20
2023-02-23T10:32:55.436Z,81.88
2023-02-23T10:35:23.446Z,74.30
2023-02-23T10:37:52.767Z,82.88
2023-02-23T10:40:24.355Z,77.43
2023-02-23T10:42:52.913Z,72.05
2023-02-23T10:45:25.724Z,75.18
2023-02-23T10:48:06.912Z,72.63
2023-02-23T10:50:38.744Z,73.65
2023-02-23T10:53:32.801Z,70.25
2023-02-23T10:56:15.697Z,71.72
2023-02-23T10:58:55.280Z,72.03
2023-02-23T11:01:49.105Z,70.63
2023-02-23T11:04:32.336Z,71.68
2023-02-23T11:07:18.549Z,71.43
2023-02-23T11:09:47.748Z,71.90
2023-02-23T11:12:22.863Z,73.75
2023-02-23T11:14:52.045Z,74.68
2023-02-23T11:17:38.209Z,71.50
2023-02-23T11:20:29.155Z,72.00
2023-02-23T11:23:03.592Z,69.93
2023-02-23T11:25:37.619Z,72.38
2023-02-23T11:28:05.645Z,70.60
2023-02-23T11:30:38.279Z,70.85
2023-02-23T11:33:11.967Z,70.43
2023-02-23T11:35:39.066Z,71.28
2023-02-23T11:38:21.642Z,68.00
2023-02-23T11:41:01.854Z,69.82
2023-02-23T11:43:29.092Z,65.28
2023-02-23T11:45:58.588Z,67.28
2023-02-23T11:48:33.599Z,69.97
2023-02-23T11:51:01.353Z,69.95
2023-02-23T11:53:40.516Z,67.93
2023-02-23T11:56:11.112Z,67.20
2023-02-23T11:59:08.881Z,66.78
2023-02-23T12:01:51.224Z,68.63
2023-02-23T12:04:40.305Z,66.82
2023-02-23T12:07:31.431Z,69.70
2023-02-23T12:10:06.583Z,70.43
2023-02-23T12:12:50.456Z,71.57
2023-02-23T12:15:43.763Z,72.53
2023-02-23T12:18:32.619Z,72.60
2023-02-23T12:21:13.390Z,73.53
2023-02-23T12:23:43.171Z,72.57
2023-02-23T12:26:18.867Z,72.78
2023-02-23T12:28:53.746Z,74.25
2023-02-23T12:31:28.414Z,74.68
2023-02-23T12:34:10.781Z,76.45
2023-02-23T12:36:43.569Z,72.57
2023-02-23T12:39:21.196Z,73.43
2023-02-23T12:41:57.144Z,72.60
2023-02-23T12:44:49.702Z,74.05
2023-02-23T12:47:41.630Z,74.28
2023-02-23T12:50:23.429Z,72.30
2023-02-23T12:52:54.908Z,71.38
2023-02-23T12:55:41.557Z,74.25
2023-02-23T12:58:35.603Z,73.38
2023-02-23T13:01:18.690Z,76.10
2023-02-23T13:03:56.856Z,73.65
2023-02-23T13:06:50.071Z,76.03
2023-02-23T13:09:24.399Z,72.93
2023-02-23T13:12:07.743Z,71.78
2023-02-23T13:14:34.522Z,74.03
2023-02-23T13:17:22.427Z,69.80
2023-02-23T13:19:56.337Z,73.70
2023-02-23T13:22:33.604Z,71.82
2023-02-23T13:25:05.309Z,70.32
2023-02-23T13:27:43.879Z,74.68
2023-02-23T13:30:12.030Z,73.43
2023-02-23T13:32:39.561Z,71.93
2023-02-23T13:35:13.356Z,72.53
2023-02-23T13:37:55.500Z,70.95
2023-02-23T13:43:01.151Z,71.25
2023-02-23T13:45:31.433Z,72.43
2023-02-23T13:48:32.422Z,73.22
2023-02-23T13:51:20.741Z,75.03
2023-02-23T13:54:02.392Z,74.00
2023-02-23T13:56:32.038Z,73.10
2023-02-23T13:59:08.348Z,71.40
2023-02-23T14:01:40.762Z,74.70
2023-02-23T14:04:16.049Z,71.95
2023-02-23T14:06:56.854Z,68.95
2023-02-23T14:09:30.573Z,69.03
2023-02-23T14:12:40.174Z,70.15
2023-02-23T14:15:25.458Z,70.75
2023-02-23T14:17:57.033Z,67.45
2023-02-23T14:20:39.145Z,66.90
2023-02-23T14:23:21.168Z,65.78
2023-02-23T14:25:51.171Z,68.97
2023-02-23T14:28:35.304Z,69.15
2023-02-23T14:31:11.400Z,67.05
2023-02-23T14:33:48.563Z,67.05
2023-02-23T14:36:21.490Z,67.78
2023-02-23T14:39:01.296Z,66.60
2023-02-23T14:41:47.005Z,66.05
2023-02-23T14:44:30.816Z,66.38
2023-02-23T14:47:02.847Z,68.65
2023-02-23T14:49:35.579Z,66.63
2023-02-23T14:52:14.844Z,67.78
2023-02-23T14:54:41.624Z,70.15
2023-02-23T14:57:22.513Z,68.97
2023-02-23T15:00:12.186Z,70.72
2023-02-23T15:02:53.709Z,65.80
2023-02-23T15:05:24.949Z,69.68
2023-02-23T15:07:54.025Z,70.32
2023-02-23T15:10:37.192Z,68.15
2023-02-23T15:13:28.968Z,70.97
2023-02-23T15:15:58.035Z,68.80
2023-02-23T15:18:36.581Z,68.90
2023-02-23T15:21:16.883Z,69.03
2023-02-23T15:23:50.976Z,65.05
2023-02-23T15:26:39.318Z,62.00
2023-02-23T15:29:14.661Z,60.72
2023-02-23T15:31:51.136Z,67.32
2023-02-23T15:34:30.700Z,64.78
2023-02-23T15:37:03.455Z,62.78
2023-02-23T15:39:48.429Z,60.92
2023-02-23T15:42:18.463Z,63.95
2023-02-23T15:44:45.833Z,62.03
2023-02-23T15:47:22.119Z,60.45
2023-02-23T15:49:50.350Z,62.58
2023-02-23T15:52:22.519Z,62.67
2023-02-23T15:57:29.647Z,59.67
2023-02-23T16:00:02.445Z,61.25
2023-02-23T16:02:30.277Z,62.42
2023-02-23T16:05:06.271Z,59.88
2023-02-23T16:07:43.363Z,63.58
2023-02-23T16:10:23.767Z,62.95
2023-02-23T16:12:53.280Z,64.07
2023-02-23T16:15:35.522Z,61.28
2023-02-23T16:20:38.574Z,63.40
2023-02-23T16:23:06.670Z,65.13
2023-02-23T16:25:34.825Z,67.72
2023-02-23T16:28:07.618Z,66.82
2023-02-23T16:30:43.881Z,67.93
2023-02-23T16:33:21.736Z,67.90
2023-02-23T16:35:51.675Z,69.53
2023-02-23T16:38:37.808Z,69.40
2023-02-23T16:41:05.969Z,67.35
2023-02-23T16:43:35.200Z,71.47
2023-02-23T16:46:02.628Z,76.57
2023-02-23T16:48:30.401Z,72.30
2023-02-23T16:50:57.638Z,79.07
2023-02-23T16:53:25.341Z,77.95
2023-02-23T16:56:00.982Z,76.68
2023-02-23T16:58:30.724Z,70.78
2023-02-23T17:00:57.604Z,79.35
2023-02-23T17:03:31.377Z,74.50
2023-02-23T17:05:59.482Z,74.13
2023-02-23T17:08:26.404Z,75.93
2023-02-23T17:10:55.434Z,80.10
2023-02-23T17:13:24.995Z,75.20
2023-02-23T17:15:56.209Z,71.72
2023-02-23T17:18:28.811Z,69.57
2023-02-23T17:20:57.741Z,68.10
2023-02-23T17:23:27.101Z,75.07
2023-02-23T17:25:58.548Z,78.75
2023-02-23T17:28:25.895Z,78.68
2023-02-23T17:30:54.292Z,76.85
2023-02-23T17:33:21.191Z,78.43
2023-02-23T17:35:48.079Z,78.05
2023-02-23T17:38:15.119Z,75.78
2023-02-23T17:40:42.037Z,75.35
2023-02-23T17:43:10.969Z,78.63
2023-02-23T17:45:39.604Z,84.30
2023-02-23T17:48:06.388Z,85.88
2023-02-23T17:50:33.305Z,82.38
2023-02-23T17:53:00.128Z,87.80
2023-02-23T17:55:27.517Z,86.05
2023-02-23T17:57:54.308Z,87.72
2023-02-23T18:00:21.372Z,82.57
2023-02-23T18:02:48.326Z,76.72
2023-02-23T18:05:15.971Z,77.70
2023-02-23T18:07:43.142Z,74.75
2023-02-23T18:10:11.188Z,73.20
2023-02-23T18:12:38.270Z,77.32
2023-02-23T18:15:05.587Z,74.07
2023-02-23T18:17:33.769Z,73.47
2023-02-23T18:20:01.088Z,75.18
2023-02-23T18:22:27.905Z,77.85
2023-02-23T18:24:56.576Z,77.65
2023-02-23T18:27:24.530Z,80.47
2023-02-23T18:29:51.293Z,86.95
2023-02-23T18:32:18.274Z,76.32
2023-02-23T18:34:45.246Z,75.85
2023-02-23T18:37:12.251Z,75.95
2023-02-23T18:39:39.126Z,73.60
2023-02-23T18:42:06.073Z,77.15
2023-02-23T18:44:35.116Z,73.18
2023-02-23T18:47:02.485Z,75.88
2023-02-23T18:49:29.343Z,76.18
2023-02-23T18:51:56.599Z,80.35
2023-02-23T18:54:26.694Z,75.53
2023-02-23T18:56:55.290Z,75.68
2023-02-23T18:59:22.141Z,74.13
2023-02-23T19:01:49.112Z,78.15
2023-02-23T19:04:16.078Z,77.15
2023-02-23T19:06:45.436Z,75.63
2023-02-23T19:09:14.683Z,78.82
2023-02-23T19:11:43.223Z,79.18
2023-02-23T19:14:18.253Z,78.65
2023-02-23T19:16:46.791Z,72.03
2023-02-23T19:19:14.463Z,73.53
2023-02-23T19:21:41.536Z,72.05
2023-02-23T19:24:08.872Z,74.90
2023-02-23T19:26:37.452Z,77.45
2023-02-23T19:29:04.701Z,75.68
2023-02-23T19:31:31.847Z,76.55
2023-02-23T19:33:59.829Z,74.28
2023-02-23T19:36:31.897Z,76.18
2023-02-23T19:39:06.183Z,75.32
2023-02-23T19:41:34.287Z,76.45
2023-02-23T19:44:01.559Z,78.68
2023-02-23T19:46:29.054Z,78.78
2023-02-23T19:48:56.300Z,80.60
2023-02-23T19:51:23.997Z,78.65
2023-02-23T19:53:54.527Z,73.38
2023-02-23T19:56:24.606Z,77.80
2023-02-23T19:58:52.247Z,80.60
2023-02-23T20:01:21.615Z,74.65
2023-02-23T20:03:55.572Z,78.50
2023-02-23T20:06:27.744Z,75.65
2023-02-23T20:08:55.373Z,77.05
2023-02-23T20:11:23.449Z,69.97
2023-02-23T20:13:53.170Z,74.80
2023-02-23T20:16:20.422Z,72.32
2023-02-23T20:18:47.647Z,74.53
2023-02-23T20:21:18.724Z,71.22
2023-02-23T20:23:47.023Z,79.47
2023-02-23T20:26:20.079Z,72.00
2023-02-23T20:28:47.200Z,71.20
2023-02-23T20:31:17.161Z,72.60
2023-02-23T20:33:44.159Z,73.00
2023-02-23T20:36:12.183Z,68.75
2023-02-23T20:38:39.387Z,69.20
2023-02-23T20:41:06.461Z,67.88
2023-02-23T20:43:33.262Z,64.65
2023-02-23T20:46:00.981Z,69.50
2023-02-23T20:48:29.434Z,64.00
2023-02-23T20:50:57.061Z,74.47
2023-02-23T20:53:25.316Z,68.45
2023-02-23T20:55:52.880Z,59.08
2023-02-23T20:58:25.512Z,61.92
2023-02-23T21:01:20.374Z,56.03
2023-02-23T21:03:47.830Z,58.83
2023-02-23T21:06:16.114Z,58.30
2023-02-23T21:08:42.950Z,58.92
2023-02-23T21:11:09.759Z,57.75
2023-02-23T21:13:37.033Z,56.47
2023-02-23T21:16:04.156Z,55.78
2023-02-23T21:18:31.747Z,51.25
2023-02-23T21:21:06.460Z,47.95
2023-02-23T21:23:33.392Z,47.78
2023-02-23T21:26:07.112Z,50.03
2023-02-23T21:28:35.458Z,46.08
2023-02-23T21:31:02.338Z,46.88
2023-02-23T21:33:29.215Z,47.92
2023-02-23T21:35:58.930Z,45.95
2023-02-23T21:38:26.406Z,44.30
2023-02-23T21:40:53.352Z,45.53
2023-02-23T21:43:20.177Z,45.97
2023-02-23T21:45:46.958Z,44.08
2023-02-23T21:48:14.269Z,43.63
2023-02-23T21:50:41.477Z,42.75
2023-02-23T21:53:09.695Z,42.42
2023-02-23T21:55:41.315Z,41.28
2023-02-23T21:58:08.227Z,44.08
2023-02-23T22:00:35.861Z,39.67
2023-02-23T22:03:03.616Z,41.72
2023-02-23T22:05:30.446Z,39.30
2023-02-23T22:07:57.186Z,41.88
2023-02-23T22:10:24.859Z,42.35
2023-02-23T22:12:56.264Z,44.47
2023-02-23T22:15:27.763Z,41.80
2023-02-23T22:17:55.806Z,36.90
2023-02-23T22:20:22.774Z,40.55
2023-02-23T22:22:52.494Z,45.83
2023-02-23T22:25:20.292Z,46.97
2023-02-23T22:27:47.343Z,47.42
2023-02-23T22:30:15.247Z,46.45
2023-02-23T22:32:42.802Z,44.67
2023-02-23T22:35:10.522Z,44.97
2023-02-23T22:37:38.674Z,48.70
2023-02-23T22:40:13.653Z,48.70
2023-02-23T22:42:43.507Z,50.92
2023-02-23T22:45:11.032Z,51.63
2023-02-23T22:47:38.934Z,51.15
2023-02-23T22:50:07.037Z,52.70
2023-02-23T22:52:34.719Z,58.83
2023-02-23T22:55:03.197Z,61.17
2023-02-23T22:57:30.058Z,57.22
2023-02-23T23:00:00.602Z,58.88
2023-02-23T23:02:32.173Z,60.83
2023-02-23T23:05:01.847Z,58.25
2023-02-23T23:07:30.988Z,59.63
2023-02-23T23:10:02.916Z,54.33
2023-02-23T23:12:29.863Z,59.65
2023-02-23T23:15:01.222Z,58.85
2023-02-23T23:17:29.660Z,59.87
2023-02-23T23:19:57.494Z,62.67
2023-02-23T23:22:25.307Z,61.65
2023-02-23T23:24:52.721Z,62.47
2023-02-23T23:27:21.186Z,60.53
2023-02-23T23:29:48.725Z,62.20
2023-02-23T23:32:17.644Z,61.17
2023-02-23T23:34:49.233Z,62.00
2023-02-23T23:37:17.656Z,61.78
2023-02-23T23:39:45.036Z,63.45
2023-02-23T23:42:12.797Z,65.28
2023-02-23T23:44:39.651Z,64.50
2023-02-23T23:47:06.878Z,67.70
2023-02-23T23:49:38.466Z,70.43
2023-02-23T23:52:05.930Z,65.93
2023-02-23T23:54:39.028Z,65.45
2023-02-23T23:57:06.874Z,64.13
2023-02-23T23:59:34.896Z,64.53
